Time;durP1;ratioP1;P1;durP2;ratioP2;P2;SDS_P1;SDS_P2;PMS_P1;PMS_P2;Temp;Humidity;BMP_temperature;BMP_pressure;BME280_temperature;BME280_humidity;BME280_pressure;Samples;Min_cycle;Max_cycle;Signal;HPM_P1;HPM_P2
2023/02/01 00:01:56;;;;;;;5.90;4.20;;;;;;;1.12;100.00;97413.13;106185;1257;60437;-76
2023/02/01 00:04:22;;;;;;;3.50;2.40;;;;;;;1.13;100.00;97416.84;106071;1259;60648;-77
2023/02/01 00:06:48;;;;;;;4.20;2.70;;;;;;;1.14;100.00;97416.21;106239;1256;60564;-78
2023/02/01 00:09:15;;;;;;;4.00;2.60;;;;;;;1.16;100.00;97422.38;106265;1257;60542;-78
2023/02/01 00:11:41;;;;;;;6.20;3.50;;;;;;;1.18;100.00;97426.15;106351;1255;60447;-76
2023/02/01 00:14:08;;;;;;;6.80;2.90;;;;;;;1.21;100.00;97434.40;106237;1257;60603;-80
2023/02/01 00:16:34;;;;;;;7.60;5.10;;;;;;;1.23;100.00;97434.23;106262;1257;60424;-77
2023/02/01 00:19:03;;;;;;;5.60;3.00;;;;;;;1.23;100.00;97433.77;106300;1257;60479;-79
2023/02/01 00:21:29;;;;;;;4.70;2.70;;;;;;;1.25;100.00;97423.29;106412;1256;71044;-77
2023/02/01 00:23:56;;;;;;;5.60;3.50;;;;;;;1.27;100.00;97428.67;106308;1255;72554;-78
2023/02/01 00:26:33;;;;;;;6.30;4.10;;;;;;;1.28;100.00;97432.52;105984;1254;60448;-79
2023/02/01 00:29:00;;;;;;;4.70;2.50;;;;;;;1.29;100.00;97422.95;106312;1256;60396;-77
2023/02/01 00:31:26;;;;;;;7.50;3.20;;;;;;;1.31;100.00;97425.73;106308;1257;73708;-78
2023/02/01 00:33:53;;;;;;;5.40;3.60;;;;;;;1.33;100.00;97423.73;106281;1256;59250;-79
2023/02/01 00:36:19;;;;;;;5.20;3.10;;;;;;;1.36;100.00;97414.06;106226;1257;60456;-79
2023/02/01 00:38:45;;;;;;;6.00;3.40;;;;;;;1.42;100.00;97400.73;106427;1257;60761;-79
2023/02/01 00:41:14;;;;;;;6.50;3.50;;;;;;;1.42;100.00;97406.13;106235;1260;60447;-77
2023/02/01 00:43:40;;;;;;;5.70;2.80;;;;;;;1.42;100.00;97405.16;106213;1257;73709;-77
2023/02/01 00:46:06;;;;;;;5.60;3.30;;;;;;;1.38;100.00;97403.13;106288;1257;60532;-79
2023/02/01 00:48:33;;;;;;;5.10;3.40;;;;;;;1.35;100.00;97401.82;106188;1257;60456;-78
2023/02/01 00:51:04;;;;;;;5.70;3.70;;;;;;;1.33;100.00;97401.13;106291;1257;60457;-78
2023/02/01 00:53:30;;;;;;;5.40;3.40;;;;;;;1.33;100.00;97395.31;106194;1256;60526;-79
2023/02/01 00:55:57;;;;;;;4.90;3.40;;;;;;;1.34;100.00;97403.23;106210;1256;60332;-79
2023/02/01 00:58:25;;;;;;;4.10;2.60;;;;;;;1.35;100.00;97401.86;106232;1257;60388;-77
2023/02/01 01:01:17;;;;;;;5.10;2.90;;;;;;;1.36;100.00;97403.65;106278;1255;71389;-77
2023/02/01 01:03:46;;;;;;;6.50;4.20;;;;;;;1.40;100.00;97406.20;106271;1255;60509;-77
2023/02/01 01:06:16;;;;;;;7.90;3.90;;;;;;;1.42;100.00;97411.46;106347;1255;60379;-77
2023/02/01 01:08:43;;;;;;;3.70;2.50;;;;;;;1.39;100.00;97415.80;106363;1254;72163;-77
2023/02/01 01:11:19;;;;;;;4.50;3.30;;;;;;;1.38;100.00;97409.21;106364;1254;70658;-77
2023/02/01 01:13:47;;;;;;;5.70;3.30;;;;;;;1.38;100.00;97398.05;106303;1254;72615;-78
2023/02/01 01:16:13;;;;;;;6.00;2.60;;;;;;;1.40;100.00;97399.04;106075;1253;60418;-77
2023/02/01 01:18:40;;;;;;;9.40;6.00;;;;;;;1.51;100.00;97396.42;106262;1257;60421;-77
2023/02/01 01:21:08;;;;;;;10.50;5.00;;;;;;;1.58;100.00;97397.52;106387;1254;74166;-79
2023/02/01 01:23:34;;;;;;;5.80;3.70;;;;;;;1.60;100.00;97391.52;106289;1256;69941;-77
2023/02/01 01:26:05;;;;;;;8.30;2.90;;;;;;;1.60;100.00;97385.88;106257;1256;71421;-77
2023/02/01 01:28:31;;;;;;;6.40;4.30;;;;;;;1.68;100.00;97367.91;106302;1257;60414;-77
2023/02/01 01:30:58;;;;;;;6.40;2.30;;;;;;;1.75;100.00;97377.19;106279;1257;60437;-77
2023/02/01 01:33:24;;;;;;;3.80;2.40;;;;;;;1.80;100.00;97378.77;106288;1254;61518;-79
2023/02/01 01:35:51;;;;;;;3.40;2.00;;;;;;;1.81;100.00;97383.98;106269;1255;61119;-77
2023/02/01 01:38:17;;;;;;;4.90;2.10;;;;;;;1.84;100.00;97381.46;106288;1252;59567;-79
2023/02/01 01:40:47;;;;;;;5.50;2.30;;;;;;;1.90;100.00;97384.79;106380;1256;60475;-78
2023/02/01 01:43:14;;;;;;;6.20;3.10;;;;;;;1.96;100.00;97382.76;106232;1254;60537;-77
2023/02/01 01:45:40;;;;;;;1.90;1.30;;;;;;;2.06;100.00;97381.80;106227;1255;73666;-79
2023/02/01 01:48:11;;;;;;;4.40;3.20;;;;;;;2.18;100.00;97389.34;106226;1254;60469;-77
2023/02/01 01:50:44;;;;;;;6.40;1.60;;;;;;;2.25;100.00;97389.57;106182;1254;72517;-77
2023/02/01 01:53:11;;;;;;;4.40;1.90;;;;;;;2.33;100.00;97392.70;106433;1258;60485;-79
2023/02/01 01:55:39;;;;;;;3.50;1.40;;;;;;;2.39;100.00;97409.90;106207;1257;60341;-77
2023/02/01 01:58:08;;;;;;;3.00;1.90;;;;;;;2.42;100.00;97400.55;106237;1257;73844;-79
2023/02/01 02:00:34;;;;;;;2.90;1.90;;;;;;;2.37;100.00;97396.12;106277;1255;71074;-79
2023/02/01 02:03:05;;;;;;;5.70;3.10;;;;;;;2.29;100.00;97382.30;106213;1254;60459;-77
2023/02/01 02:05:31;;;;;;;4.00;1.60;;;;;;;2.23;100.00;97388.64;106438;1254;60452;-79
2023/02/01 02:08:00;;;;;;;5.80;2.20;;;;;;;2.21;100.00;97398.27;106111;1254;60491;-79
2023/02/01 02:10:59;;;;;;;2.00;1.40;;;;;;;2.24;100.00;97392.75;106477;1252;72609;-79
2023/02/01 02:13:14;;;;;;;2.20;1.60;;;;;;;2.38;100.00;97396.58;106286;1257;69508;-77
2023/02/01 02:15:43;;;;;;;2.40;1.40;;;;;;;2.46;100.00;97407.67;106170;1254;71650;-77
2023/02/01 02:18:18;;;;;;;9.60;2.80;;;;;;;2.56;100.00;97464.28;106095;1257;60486;-79
2023/02/01 02:21:10;;;;;;;2.60;1.10;;;;;;;2.06;100.00;97531.59;106332;1255;60370;-78
2023/02/01 02:24:10;;;;;;;3.40;1.00;;;;;;;1.12;100.00;97528.85;106332;1252;73728;-78
2023/02/01 02:27:24;;;;;;;1.90;0.90;;;;;;;0.84;100.00;97533.55;106318;1257;69952;-77
2023/02/01 02:30:14;;;;;;;1.90;0.80;;;;;;;0.57;100.00;97539.56;106273;1254;72509;-79
2023/02/01 02:33:13;;;;;;;1.90;1.20;;;;;;;0.35;100.00;97539.17;106255;1253;60558;-78
2023/02/01 02:35:47;;;;;;;3.70;1.40;;;;;;;0.23;100.00;97538.52;106280;1254;60412;-78
2023/02/01 02:38:23;;;;;;;1.10;1.00;;;;;;;0.23;100.00;97538.64;106310;1257;72633;-78
2023/02/01 02:40:55;;;;;;;5.00;3.00;;;;;;;0.16;100.00;97531.46;106202;1255;70958;-78
2023/02/01 02:49:23;;;;;;;6.00;3.80;;;;;;;0.13;100.00;97505.52;106164;1254;60437;-79
2023/02/01 02:54:46;;;;;;;2.20;1.40;;;;;;;0.13;100.00;97495.73;106014;1255;71622;-77
2023/02/01 03:05:39;;;;;;;4.00;1.70;;;;;;;0.18;100.00;97490.55;106092;1255;66400;-78
2023/02/01 03:08:11;;;;;;;6.00;1.50;;;;;;;0.20;100.00;97494.52;106284;1254;69948;-79
2023/02/01 03:10:41;;;;;;;4.00;1.70;;;;;;;0.22;100.00;97489.73;106199;1254;71423;-78
2023/02/01 03:13:22;;;;;;;4.90;2.60;;;;;;;0.26;100.00;97494.80;106215;1258;60626;-76
2023/02/01 03:16:35;;;;;;;10.40;3.50;;;;;;;0.31;100.00;97502.00;106306;1257;60437;-78
2023/02/01 03:19:09;;;;;;;6.30;1.40;;;;;;;0.36;100.00;97504.56;105674;1263;73665;-78
2023/02/01 03:21:44;;;;;;;4.70;1.50;;;;;;;0.39;100.00;97509.42;105902;1261;71088;-78
2023/02/01 03:24:15;;;;;;;5.60;2.10;;;;;;;0.39;100.00;97502.01;106152;1254;72528;-78
2023/02/01 03:26:49;;;;;;;8.30;1.70;;;;;;;0.37;100.00;97495.02;106023;1257;60528;-79
2023/02/01 03:29:23;;;;;;;7.20;1.60;;;;;;;0.39;100.00;97491.41;106041;1253;60543;-79
2023/02/01 03:31:49;;;;;;;5.60;2.30;;;;;;;0.47;100.00;97487.34;106358;1257;73833;-79
2023/02/01 03:34:16;;;;;;;4.10;1.50;;;;;;;0.54;100.00;97486.20;106236;1254;71026;-78
2023/02/01 03:36:56;;;;;;;3.60;1.20;;;;;;;0.61;100.00;97481.67;106028;1253;60467;-79
2023/02/01 03:39:36;;;;;;;2.00;1.40;;;;;;;0.66;100.00;97486.64;106217;1257;60433;-78
2023/02/01 03:42:04;;;;;;;6.90;4.10;;;;;;;0.72;100.00;97479.33;106309;1254;60487;-79
2023/02/01 03:44:34;;;;;;;5.70;2.00;;;;;;;0.75;100.00;97477.79;106329;1257;73778;-77
2023/02/01 03:47:12;;;;;;;2.70;1.30;;;;;;;0.77;100.00;97489.24;106367;1254;71077;-77
2023/02/01 03:49:41;;;;;;;4.40;1.90;;;;;;;0.78;100.00;97484.07;106288;1254;72555;-79
2023/02/01 03:52:09;;;;;;;;;;;;;;;0.78;100.00;97478.85;106333;1252;60453;-78
2023/02/01 03:54:35;;;;;;;6.80;3.20;;;;;;;0.79;100.00;97482.98;106096;1254;60451;-77
2023/02/01 03:57:04;;;;;;;9.00;1.70;;;;;;;0.80;100.00;97491.09;106280;1254;60361;-78
2023/02/01 03:59:31;;;;;;;7.90;2.60;;;;;;;0.85;100.00;97498.80;106163;1254;137328;-77
2023/02/01 04:01:57;;;;;;;4.60;1.50;;;;;;;0.90;100.00;97490.91;106215;1257;60897;-79
2023/02/01 04:04:24;;;;;;;3.60;1.60;;;;;;;0.96;100.00;97497.23;106214;1257;60501;-77
2023/02/01 04:06:50;;;;;;;4.20;2.10;;;;;;;0.99;100.00;97495.12;106155;1254;60354;-79
2023/02/01 04:09:17;;;;;;;3.50;1.60;;;;;;;1.04;100.00;97497.96;106204;1254;60444;-77
2023/02/01 04:11:43;;;;;;;8.20;1.90;;;;;;;1.06;100.00;97494.71;106231;1254;60468;-77
2023/02/01 04:14:09;;;;;;;4.60;2.00;;;;;;;1.10;100.00;97496.77;106192;1254;61000;-78
2023/02/01 04:16:36;;;;;;;7.00;2.50;;;;;;;1.15;100.00;97488.98;106230;1254;60597;-77
2023/02/01 04:19:02;;;;;;;6.10;2.20;;;;;;;1.18;100.00;97484.61;106229;1257;60952;-77
2023/02/01 04:21:29;;;;;;;3.30;1.10;;;;;;;1.21;100.00;97481.83;106256;1255;60526;-79
2023/02/01 04:23:55;;;;;;;2.80;1.60;;;;;;;1.24;100.00;97491.44;106212;1258;60453;-77
2023/02/01 04:26:21;;;;;;;5.50;1.50;;;;;;;1.27;100.00;97498.82;106209;1254;60435;-76
2023/02/01 04:28:48;;;;;;;3.80;1.60;;;;;;;1.28;100.00;97503.85;106234;1257;60534;-79
2023/02/01 04:31:15;;;;;;;6.60;2.00;;;;;;;1.28;100.00;97501.30;106229;1254;60526;-79
2023/02/01 04:33:42;;;;;;;4.60;2.70;;;;;;;1.27;100.00;97494.91;106255;1253;61239;-77
2023/02/01 04:36:08;;;;;;;7.30;2.20;;;;;;;1.25;100.00;97486.38;106157;1254;60997;-79
2023/02/01 04:38:34;;;;;;;5.10;2.30;;;;;;;1.22;100.00;97481.09;106235;1257;60539;-77
2023/02/01 04:41:01;;;;;;;6.10;2.30;;;;;;;1.21;100.00;97479.48;106064;1254;60462;-79
2023/02/01 04:43:27;;;;;;;4.80;2.30;;;;;;;1.23;100.00;97476.23;106066;1254;60885;-77
2023/02/01 04:45:54;;;;;;;6.00;3.40;;;;;;;1.22;100.00;97492.56;106457;1254;60574;-77
2023/02/01 04:48:20;;;;;;;6.30;3.40;;;;;;;1.21;100.00;97503.29;106278;1254;60447;-77
2023/02/01 04:50:48;;;;;;;8.70;3.10;;;;;;;1.22;100.00;97510.88;106225;1257;60414;-79
2023/02/01 04:53:15;;;;;;;8.00;3.70;;;;;;;1.27;100.00;97525.72;106050;1254;60409;-77
2023/02/01 04:55:42;;;;;;;5.00;3.10;;;;;;;1.33;100.00;97539.96;106301;1256;60421;-79
2023/02/01 04:58:08;;;;;;;6.50;3.50;;;;;;;1.29;100.00;97555.55;106258;1253;72606;-79
2023/02/01 05:00:35;;;;;;;7.50;3.90;;;;;;;1.19;100.00;97552.80;106203;1257;60540;-77
2023/02/01 05:03:01;;;;;;;5.10;3.00;;;;;;;1.11;100.00;97534.36;106227;1254;60457;-77
2023/02/01 05:05:28;;;;;;;4.50;2.60;;;;;;;1.02;100.00;97540.71;106224;1256;60450;-77
2023/02/01 05:07:54;;;;;;;6.60;3.20;;;;;;;0.98;100.00;97532.98;106197;1254;60287;-77
2023/02/01 05:10:21;;;;;;;6.00;2.60;;;;;;;0.98;100.00;97538.73;106345;1254;60453;-77
2023/02/01 05:15:33;;;;;;;8.90;3.50;;;;;;;0.98;100.00;97529.41;106252;1255;71416;-77
2023/02/01 05:17:59;;;;;;;11.80;3.90;;;;;;;1.00;100.00;97521.30;106370;1254;60341;-78
2023/02/01 05:20:25;;;;;;;6.60;3.70;;;;;;;1.07;100.00;97518.27;106316;1254;60530;-77
2023/02/01 05:22:52;;;;;;;17.30;6.60;;;;;;;1.17;100.00;97514.54;106255;1256;60539;-77
2023/02/01 05:25:18;;;;;;;18.10;5.80;;;;;;;1.29;100.00;97516.48;106233;1256;60436;-79
2023/02/01 05:27:45;;;;;;;9.90;4.00;;;;;;;1.37;100.00;97511.70;106026;1258;59404;-77
2023/02/01 05:30:12;;;;;;;12.10;4.10;;;;;;;1.47;100.00;97510.59;106190;1256;60585;-79
2023/02/01 05:32:38;;;;;;;17.00;6.00;;;;;;;1.54;100.00;97507.63;106256;1254;60444;-77
2023/02/01 05:35:05;;;;;;;12.80;6.40;;;;;;;1.58;100.00;97511.77;106236;1254;60565;-79
2023/02/01 05:37:31;;;;;;;15.40;5.40;;;;;;;1.61;100.00;97514.51;106389;1254;70920;-77
2023/02/01 05:39:58;;;;;;;9.90;3.80;;;;;;;1.62;100.00;97517.70;106343;1253;60425;-77
2023/02/01 05:42:24;;;;;;;10.60;3.80;;;;;;;1.67;100.00;97518.92;106314;1254;60510;-79
2023/02/01 05:44:50;;;;;;;12.60;5.90;;;;;;;1.70;100.00;97522.83;106235;1254;60458;-80
2023/02/01 05:47:17;;;;;;;12.70;3.60;;;;;;;1.72;100.00;97530.14;106274;1258;60465;-79
2023/02/01 05:49:43;;;;;;;14.70;7.60;;;;;;;1.76;100.00;97523.16;106157;1254;60443;-77
2023/02/01 05:52:10;;;;;;;7.20;3.30;;;;;;;1.82;100.00;97522.83;106188;1254;60384;-77
2023/02/01 05:54:36;;;;;;;9.70;3.40;;;;;;;1.85;100.00;97523.08;106185;1253;60487;-77
2023/02/01 05:57:02;;;;;;;13.20;3.10;;;;;;;1.89;100.00;97516.48;106221;1254;60364;-77
2023/02/01 05:59:29;;;;;;;10.30;3.20;;;;;;;1.92;100.00;97517.23;106210;1257;60543;-80
2023/02/01 06:01:55;;;;;;;10.80;3.60;;;;;;;1.94;100.00;97514.07;106449;1254;60513;-79
2023/02/01 06:04:22;;;;;;;17.40;5.10;;;;;;;1.97;100.00;97511.63;106316;1253;60431;-80
2023/02/01 06:06:50;;;;;;;5.90;2.60;;;;;;;1.95;100.00;97514.89;106270;1254;60559;-78
2023/02/01 06:09:16;;;;;;;11.20;3.70;;;;;;;1.99;100.00;97512.63;106294;1254;61003;-78
2023/02/01 06:11:42;;;;;;;16.70;5.70;;;;;;;2.02;100.00;97510.59;106317;1255;60597;-80
2023/02/01 06:14:09;;;;;;;10.40;2.80;;;;;;;2.02;100.00;97514.13;106385;1254;60451;-78
2023/02/01 06:16:35;;;;;;;9.10;3.50;;;;;;;2.01;100.00;97508.30;106287;1253;60530;-80
2023/02/01 06:19:02;;;;;;;11.30;4.70;;;;;;;1.99;100.00;97517.71;106254;1257;60527;-77
2023/02/01 06:21:28;;;;;;;8.60;4.30;;;;;;;1.96;100.00;97522.83;106273;1257;60546;-79
2023/02/01 06:23:55;;;;;;;11.80;4.30;;;;;;;1.93;100.00;97522.34;106223;1254;60472;-76
2023/02/01 06:26:21;;;;;;;9.50;4.30;;;;;;;1.91;100.00;97520.22;106037;1254;60421;-79
2023/02/01 06:28:48;;;;;;;9.80;4.50;;;;;;;1.88;100.00;97516.79;106038;1256;60491;-78
2023/02/01 06:31:14;;;;;;;6.80;3.40;;;;;;;1.92;99.87;97511.15;106242;1253;60552;-78
2023/02/01 06:33:41;;;;;;;8.80;2.60;;;;;;;1.97;98.40;97514.14;106270;1253;60472;-77
2023/02/01 06:36:08;;;;;;;12.90;3.30;;;;;;;2.03;98.87;97516.17;106375;1257;60961;-78
2023/02/01 06:38:35;;;;;;;9.60;3.30;;;;;;;2.05;99.78;97513.55;106057;1254;71040;-77
2023/02/01 06:41:02;;;;;;;11.50;6.00;;;;;;;2.05;99.87;97507.39;106323;1253;60536;-76
2023/02/01 06:43:28;;;;;;;10.50;4.80;;;;;;;2.05;100.00;97508.21;106305;1254;60439;-77
2023/02/01 06:46:00;;;;;;;7.00;3.10;;;;;;;2.06;99.71;97504.42;106287;1256;60357;-78
2023/02/01 06:48:26;;;;;;;12.60;2.80;;;;;;;2.08;99.89;97509.60;106232;1254;73124;-79
2023/02/01 06:50:52;;;;;;;13.00;3.90;;;;;;;2.08;100.00;97512.27;106283;1253;60506;-78
2023/02/01 06:53:19;;;;;;;4.30;1.90;;;;;;;2.07;100.00;97511.39;106337;1257;61095;-76
2023/02/01 06:55:55;;;;;;;12.90;3.40;;;;;;;2.06;100.00;97502.45;106250;1254;60536;-77
2023/02/01 06:58:22;;;;;;;22.70;12.70;;;;;;;2.04;99.90;97509.25;106039;1254;60476;-76
2023/02/01 07:00:48;;;;;;;12.60;7.50;;;;;;;2.03;100.00;97502.12;106264;1256;73466;-78
2023/02/01 07:03:15;;;;;;;8.00;3.80;;;;;;;2.04;99.95;97503.52;107679;1257;59233;-79
2023/02/01 07:05:41;;;;;;;7.10;2.70;;;;;;;2.03;100.00;97504.05;106990;1253;60437;-76
2023/02/01 07:08:08;;;;;;;6.90;2.80;;;;;;;2.04;100.00;97499.72;109219;1252;58673;-79
2023/02/01 07:10:34;;;;;;;8.30;3.20;;;;;;;2.04;100.00;97499.35;109176;1254;58166;-77
2023/02/01 07:13:00;;;;;;;7.10;2.90;;;;;;;2.05;99.98;97500.58;109205;1253;58854;-78
2023/02/01 07:15:27;;;;;;;10.00;3.30;;;;;;;2.05;100.00;97497.20;109156;1252;58485;-79
2023/02/01 07:17:56;;;;;;;8.60;3.30;;;;;;;2.04;100.00;97496.89;109139;1254;58342;-77
2023/02/01 07:20:23;;;;;;;9.70;4.30;;;;;;;2.02;100.00;97496.48;109280;1253;58723;-77
2023/02/01 07:22:54;;;;;;;7.20;3.20;;;;;;;2.00;100.00;97493.94;109204;1253;58256;-77
2023/02/01 07:25:20;;;;;;;10.20;3.20;;;;;;;1.98;100.00;97493.16;109186;1254;73714;-79
2023/02/01 07:27:47;;;;;;;9.60;4.00;;;;;;;2.00;100.00;97498.17;109271;1253;58437;-77
2023/02/01 07:30:13;;;;;;;13.90;6.90;;;;;;;2.02;100.00;97499.69;109267;1253;59046;-79
2023/02/01 07:32:40;;;;;;;15.10;6.00;;;;;;;2.02;100.00;97499.11;108973;1253;59227;-79
2023/02/01 07:35:07;;;;;;;12.00;6.60;;;;;;;2.07;100.00;97497.13;107194;1253;60466;-77
2023/02/01 07:37:33;;;;;;;9.50;5.90;;;;;;;2.11;100.00;97496.77;106847;1254;73701;-77
2023/02/01 07:40:00;;;;;;;22.00;10.10;;;;;;;2.17;100.00;97500.32;106854;1254;60503;-77
2023/02/01 07:42:26;;;;;;;18.10;8.40;;;;;;;2.23;100.00;97501.98;108821;1254;58837;-77
2023/02/01 07:44:53;;;;;;;19.20;10.30;;;;;;;2.29;100.00;97503.80;107276;1254;60459;-79
2023/02/01 07:47:20;;;;;;;15.30;9.50;;;;;;;2.34;99.85;97500.95;107786;1254;59632;-78
2023/02/01 07:49:46;;;;;;;10.40;4.10;;;;;;;2.38;100.00;97498.66;109175;1253;72624;-79
2023/02/01 07:52:15;;;;;;;15.90;5.20;;;;;;;2.41;100.00;97504.99;109163;1255;58830;-77
2023/02/01 07:54:41;;;;;;;;;;;;;;;2.41;100.00;97504.29;109254;1254;73067;-77
2023/02/01 07:57:08;;;;;;;15.20;5.40;;;;;;;2.40;100.00;97497.31;109291;1254;58445;-77
2023/02/01 07:59:35;;;;;;;10.10;5.70;;;;;;;2.40;100.00;97493.58;109265;1253;58771;-77
2023/02/01 08:02:01;;;;;;;8.10;4.70;;;;;;;2.42;100.00;97499.56;109199;1253;73769;-77
2023/02/01 08:04:28;;;;;;;13.00;5.70;;;;;;;2.41;100.00;97502.75;109245;1252;58188;-79
2023/02/01 08:06:55;;;;;;;14.30;7.30;;;;;;;2.40;100.00;97491.22;109302;1251;72625;-77
2023/02/01 08:09:21;;;;;;;9.30;5.10;;;;;;;2.38;100.00;97489.95;109220;1253;58164;-77
2023/02/01 08:11:48;;;;;;;13.40;5.50;;;;;;;2.36;100.00;97489.70;109413;1252;58500;-79
2023/02/01 08:14:14;;;;;;;9.90;5.70;;;;;;;2.36;100.00;97489.01;108326;1253;60542;-79
2023/02/01 08:16:41;;;;;;;10.30;4.50;;;;;;;2.38;99.88;97490.31;108675;1253;60418;-77
2023/02/01 08:19:07;;;;;;;13.90;5.40;;;;;;;2.40;100.00;97489.36;106570;1254;60881;-77
2023/02/01 08:21:38;;;;;;;15.10;7.10;;;;;;;2.40;100.00;97486.95;106632;1254;60420;-78
2023/02/01 08:24:08;;;;;;;15.60;5.40;;;;;;;2.39;100.00;97492.76;107848;1255;60412;-78
2023/02/01 08:26:34;;;;;;;9.40;3.90;;;;;;;2.37;100.00;97492.77;106518;1256;73749;-79
2023/02/01 08:29:02;;;;;;;12.70;5.70;;;;;;;2.34;100.00;97492.92;106547;1254;61475;-78
2023/02/01 08:31:29;;;;;;;9.10;4.00;;;;;;;2.33;100.00;97496.66;106898;1254;70480;-77
2023/02/01 08:33:57;;;;;;;15.10;5.90;;;;;;;2.33;100.00;97494.05;108587;1256;60415;-77
2023/02/01 08:36:25;;;;;;;23.00;9.20;;;;;;;2.34;100.00;97494.32;106633;1253;60431;-76
2023/02/01 08:38:51;;;;;;;15.40;9.10;;;;;;;2.35;100.00;97491.19;106903;1252;72857;-80
2023/02/01 08:41:19;;;;;;;10.20;5.20;;;;;;;2.36;100.00;97492.79;106651;1255;59437;-77
2023/02/01 08:43:47;;;;;;;13.20;6.50;;;;;;;2.36;100.00;97496.39;107869;1253;73080;-77
2023/02/01 08:46:14;;;;;;;11.30;4.70;;;;;;;2.37;100.00;97494.89;106424;1253;60548;-79
2023/02/01 08:48:41;;;;;;;16.90;6.90;;;;;;;2.38;100.00;97492.78;107132;1253;61600;-77
2023/02/01 08:51:11;;;;;;;15.90;6.30;;;;;;;2.39;100.00;97492.38;106804;1253;73760;-79
2023/02/01 08:53:40;;;;;;;15.30;8.60;;;;;;;2.42;100.00;97492.16;107938;1253;71069;-79
2023/02/01 08:56:08;;;;;;;16.10;7.00;;;;;;;2.44;100.00;97490.02;107985;1254;72380;-77
2023/02/01 08:58:35;;;;;;;11.20;6.10;;;;;;;2.47;100.00;97484.55;106854;1256;60405;-79
2023/02/01 09:01:05;;;;;;;14.00;7.10;;;;;;;2.49;100.00;97483.41;106932;1252;60325;-76
2023/02/01 09:03:32;;;;;;;13.20;5.10;;;;;;;2.51;100.00;97478.31;108092;1253;72570;-76
2023/02/01 09:06:06;;;;;;;12.70;5.30;;;;;;;2.55;100.00;97478.69;106217;1259;70780;-79
2023/02/01 09:08:33;;;;;;;10.20;4.80;;;;;;;2.60;100.00;97475.58;106225;1254;71176;-78
2023/02/01 09:11:04;;;;;;;8.90;5.00;;;;;;;2.63;100.00;97474.17;106117;1257;60792;-76
2023/02/01 09:13:30;;;;;;;9.80;4.40;;;;;;;2.68;100.00;97470.20;106628;1254;60493;-76
2023/02/01 09:15:59;;;;;;;10.60;6.10;;;;;;;2.75;100.00;97461.92;106060;1254;60454;-79
2023/02/01 09:18:26;;;;;;;9.90;4.90;;;;;;;2.84;99.97;97460.94;106170;1257;69423;-79
2023/02/01 09:20:52;;;;;;;21.10;6.00;;;;;;;2.92;99.97;97461.80;106237;1257;60447;-76
2023/02/01 09:23:20;;;;;;;12.60;6.70;;;;;;;3.02;100.00;97460.30;108020;1255;60411;-77
2023/02/01 09:25:48;;;;;;;9.90;4.40;;;;;;;3.13;99.93;97457.10;106867;1253;60437;-78
2023/02/01 09:28:14;;;;;;;13.10;5.20;;;;;;;3.25;99.69;97456.09;109363;1253;65227;-77
2023/02/01 09:30:41;;;;;;;12.60;5.20;;;;;;;3.36;99.03;97444.30;109314;1254;58600;-77
2023/02/01 09:33:07;;;;;;;11.10;5.60;;;;;;;3.46;98.72;97445.52;109281;1254;58506;-77
2023/02/01 09:35:34;;;;;;;9.60;5.10;;;;;;;3.55;98.09;97448.73;109359;1253;58165;-75
2023/02/01 09:38:00;;;;;;;11.50;4.60;;;;;;;3.67;98.21;97448.14;109353;1253;58493;-76
2023/02/01 09:40:27;;;;;;;18.80;6.50;;;;;;;3.77;98.84;97450.99;108050;1254;60666;-79
2023/02/01 09:42:56;;;;;;;13.30;6.60;;;;;;;3.85;98.53;97454.69;108181;1254;69758;-77
2023/02/01 09:45:32;;;;;;;9.40;4.80;;;;;;;3.95;98.51;97453.30;106940;1253;71052;-78
2023/02/01 09:48:02;;;;;;;12.30;5.50;;;;;;;3.94;96.49;97456.49;106360;1254;60542;-78
2023/02/01 09:50:37;;;;;;;14.40;6.00;;;;;;;3.93;96.78;97453.86;106152;1254;60459;-77
2023/02/01 09:53:17;;;;;;;17.20;6.80;;;;;;;3.93;96.28;97454.20;108238;1253;72991;-77
2023/02/01 09:55:46;;;;;;;9.00;4.70;;;;;;;3.94;96.39;97462.02;106445;1254;70944;-77
2023/02/01 09:58:16;;;;;;;6.70;4.10;;;;;;;3.84;96.57;97461.80;107287;1253;71504;-77
2023/02/01 10:00:52;;;;;;;13.20;6.70;;;;;;;3.67;97.83;97466.41;106781;1256;60398;-77
2023/02/01 10:03:18;;;;;;;17.10;9.20;;;;;;;3.57;98.35;97463.22;108160;1254;59231;-75
2023/02/01 10:06:27;;;;;;;27.10;15.30;;;;;;;3.56;98.55;97461.06;106250;1253;72609;-78
2023/02/01 10:09:09;;;;;;;34.10;15.80;;;;;;;3.57;99.31;97453.91;106436;1257;69760;-76
2023/02/01 10:11:57;;;;;;;52.60;21.80;;;;;;;3.59;99.42;97456.62;107451;1254;74139;-77
2023/02/01 10:14:23;;;;;;;15.70;8.60;;;;;;;3.55;99.91;97455.00;106769;1255;60482;-77
2023/02/01 10:16:55;;;;;;;17.20;8.30;;;;;;;3.44;100.00;97446.27;106708;1255;60308;-76
2023/02/01 10:19:29;;;;;;;37.40;15.90;;;;;;;3.34;100.00;97449.05;106805;1254;73746;-77
2023/02/01 10:21:59;;;;;;;17.70;6.30;;;;;;;3.31;100.00;97444.02;107404;1253;71073;-79
2023/02/01 10:24:35;;;;;;;17.30;9.70;;;;;;;3.29;100.00;97443.34;107403;1254;72581;-79
2023/02/01 10:27:17;;;;;;;17.50;6.60;;;;;;;3.30;100.00;97438.16;106469;1254;60466;-79
2023/02/01 10:29:45;;;;;;;11.10;6.20;;;;;;;3.32;100.00;97436.21;106516;1253;60392;-77
2023/02/01 10:32:17;;;;;;;18.30;8.30;;;;;;;3.37;100.00;97438.38;107127;1253;72698;-79
2023/02/01 10:34:46;;;;;;;18.80;10.20;;;;;;;3.45;100.00;97435.48;107221;1254;71056;-78
2023/02/01 10:37:28;;;;;;;16.70;5.80;;;;;;;3.45;100.00;97433.98;106537;1254;72593;-79
2023/02/01 10:40:21;;;;;;;11.20;7.10;;;;;;;3.44;100.00;97431.13;106508;1253;60440;-79
2023/02/01 10:42:48;;;;;;;14.30;4.90;;;;;;;3.44;100.00;97434.66;107852;1253;60318;-77
2023/02/01 10:45:18;;;;;;;14.10;5.50;;;;;;;3.41;100.00;97431.69;106900;1254;72114;-77
2023/02/01 10:47:45;;;;;;;10.70;5.10;;;;;;;3.41;100.00;97431.89;106540;1257;69783;-77
2023/02/01 10:50:32;;;;;;;11.90;6.00;;;;;;;3.47;100.00;97427.36;106570;1254;71437;-77
2023/02/01 10:53:02;;;;;;;10.40;6.20;;;;;;;3.59;100.00;97431.10;106406;1254;60434;-77
2023/02/01 10:55:46;;;;;;;10.60;5.60;;;;;;;3.63;100.00;97432.64;106719;1255;60489;-78
2023/02/01 10:58:16;;;;;;;13.20;5.30;;;;;;;3.47;100.00;97427.46;106361;1252;73703;-78
2023/02/01 11:00:55;;;;;;;12.60;6.30;;;;;;;3.31;100.00;97426.46;106236;1254;70914;-79
2023/02/01 11:03:30;;;;;;;9.40;5.70;;;;;;;3.24;100.00;97426.04;108704;1253;72663;-79
2023/02/01 11:05:57;;;;;;;14.80;7.20;;;;;;;3.23;100.00;97420.18;106273;1254;59352;-79
2023/02/01 11:08:23;;;;;;;14.00;6.60;;;;;;;3.34;100.00;97420.17;106792;1253;60342;-79
2023/02/01 11:11:01;;;;;;;16.90;10.60;;;;;;;3.34;100.00;97419.17;106119;1252;72568;-79
2023/02/01 11:13:30;;;;;;;16.20;7.70;;;;;;;3.36;100.00;97415.49;106737;1254;71090;-79
2023/02/01 11:15:57;;;;;;;10.90;5.00;;;;;;;3.38;100.00;97410.69;106457;1254;71460;-79
2023/02/01 11:18:36;;;;;;;24.80;10.90;;;;;;;3.34;100.00;97410.20;106583;1254;60443;-77
2023/02/01 11:21:03;;;;;;;16.70;8.90;;;;;;;3.33;100.00;97405.75;106594;1254;60517;-77
2023/02/01 11:23:30;;;;;;;16.80;9.50;;;;;;;3.27;100.00;97402.64;107819;1255;74386;-77
2023/02/01 11:25:58;;;;;;;16.70;10.40;;;;;;;3.31;100.00;97403.24;106653;1254;71033;-77
2023/02/01 11:28:32;;;;;;;11.10;5.70;;;;;;;3.29;100.00;97399.91;106238;1254;73146;-77
2023/02/01 11:31:02;;;;;;;20.70;11.30;;;;;;;3.29;100.00;97396.86;106326;1256;60335;-79
2023/02/01 11:33:31;;;;;;;14.40;7.90;;;;;;;3.33;100.00;97395.04;109160;1253;60176;-79
2023/02/01 11:35:58;;;;;;;11.50;5.90;;;;;;;3.32;100.00;97394.96;109207;1255;72959;-77
2023/02/01 11:38:30;;;;;;;21.50;9.20;;;;;;;3.30;100.00;97388.09;109282;1254;71095;-77
2023/02/01 11:41:21;;;;;;;13.60;7.80;;;;;;;3.34;100.00;97381.17;109242;1253;72539;-78
2023/02/01 11:43:58;;;;;;;21.60;10.90;;;;;;;3.25;100.00;97378.77;109327;1253;59837;-79
2023/02/01 11:46:33;;;;;;;28.60;11.90;;;;;;;3.29;100.00;97373.95;109361;1253;62553;-79
2023/02/01 11:49:23;;;;;;;24.10;12.00;;;;;;;3.34;100.00;97373.25;107270;1254;71813;-79
2023/02/01 11:52:08;;;;;;;22.60;12.60;;;;;;;3.37;100.00;97373.29;107517;1253;71015;-77
2023/02/01 11:54:52;;;;;;;16.80;6.70;;;;;;;3.42;100.00;97367.35;107612;1256;72552;-79